NZAA METAR and TAF | Updated Today

NZAA METAR

Auckland International Airport

Observation time: 23 min. ago

NZAA 032300Z AUTO 05014KT 9999 FEW023/// 21/16 Q1021 NOSIG

Need help? Read our tutorial on how to read METARs or read the parsed version below.

Auckland International Airport (NZAA) METAR

  • Weather conditions on Fri, 03 Dec 2021 23:00:00 +0000 (23 min. ago):
  • Present conditions: Dry
  • Clouds: A few at 701 meters
  • Visibility: Greater than 10 km
  • Wind: 50 degrees at 14 knots
  • Temperature: 21 celsius
  • Dew point: 16 celsius
  • Pressure: 1021 millibars
  • Remarks: None


Useful to know...

NZAA TAF

Auckland International Airport

TAF NZAA 031705Z 0318/0418 06012KT 9999 -SHRA SCT025
Observation time: 6:18 hr. ago
Need help? Read our tutorial on how to read TAFs or read the parsed version below.

Parsed version of TAF for Auckland International Airport (NZAA)

  • From 03 December at 18:00 UTC, to day 04 of the month at 18:00 UTC
  • Clouds: Scattered at 762 meters
  • Visibility: Greater than 10 km
  • Wind: 60 degrees at 12
  • Other: Light showers of rain

Airports near NZAA